createdAt,value
2019-05-22T00:02:21.178Z,42.93
2019-05-22T00:05:01.801Z,45.55
2019-05-22T00:07:38.925Z,48.60
2019-05-22T00:10:19.372Z,45.28
2019-05-22T00:12:57.453Z,43.33
2019-05-22T00:15:33.376Z,45.12
2019-05-22T00:18:10.418Z,42.53
2019-05-22T00:20:46.890Z,45.25
2019-05-22T00:23:23.602Z,46.30
2019-05-22T00:26:00.200Z,48.15
2019-05-22T00:28:36.432Z,44.33
2019-05-22T00:31:13.990Z,48.83
2019-05-22T00:33:50.553Z,44.00
2019-05-22T00:36:26.790Z,49.08
2019-05-22T00:39:03.926Z,44.75
2019-05-22T00:41:40.591Z,48.92
2019-05-22T00:44:17.947Z,47.33
2019-05-22T00:46:55.530Z,43.35
2019-05-22T00:49:33.300Z,45.67
2019-05-22T00:52:31.570Z,47.33
2019-05-22T00:55:23.192Z,48.90
2019-05-22T00:58:18.985Z,48.33
2019-05-22T01:01:01.228Z,48.48
2019-05-22T01:03:38.914Z,45.15
2019-05-22T01:06:15.908Z,49.63
2019-05-22T01:08:52.933Z,47.00
2019-05-22T01:11:29.710Z,45.98
2019-05-22T01:14:05.549Z,47.17
2019-05-22T01:16:42.931Z,48.38
2019-05-22T01:19:20.557Z,49.23
2019-05-22T01:21:56.431Z,49.77
2019-05-22T01:24:34.887Z,51.30
2019-05-22T01:27:11.437Z,50.98
2019-05-22T01:29:48.039Z,50.08
2019-05-22T01:32:29.121Z,49.53
2019-05-22T01:35:04.768Z,48.48
2019-05-22T01:37:43.519Z,50.38
2019-05-22T01:40:33.269Z,55.70
2019-05-22T01:43:11.894Z,47.48
2019-05-22T01:45:55.344Z,52.45
2019-05-22T01:48:36.219Z,47.62
2019-05-22T01:51:14.317Z,54.13
2019-05-22T01:53:51.893Z,58.95
2019-05-22T01:56:29.537Z,51.53
2019-05-22T01:59:07.388Z,54.40
2019-05-22T02:01:45.253Z,51.73
2019-05-22T02:04:21.956Z,52.05
2019-05-22T02:06:58.642Z,48.58
2019-05-22T02:09:38.001Z,51.50
2019-05-22T02:12:23.453Z,49.85
2019-05-22T02:14:59.184Z,57.03
2019-05-22T02:17:37.316Z,55.38
2019-05-22T02:20:12.672Z,55.17
2019-05-22T02:22:50.016Z,56.20
2019-05-22T02:25:25.572Z,50.10
2019-05-22T02:28:01.275Z,57.83
2019-05-22T02:30:38.552Z,56.73
2019-05-22T02:33:18.086Z,50.25
2019-05-22T02:35:53.870Z,57.15
2019-05-22T02:38:29.379Z,54.53
2019-05-22T02:41:07.843Z,59.13
2019-05-22T02:43:43.746Z,59.50
2019-05-22T02:46:19.130Z,61.63
2019-05-22T02:48:55.960Z,62.60
2019-05-22T02:51:32.936Z,64.07
2019-05-22T02:54:10.347Z,58.15
2019-05-22T02:56:45.792Z,61.25
2019-05-22T02:59:21.550Z,60.70
2019-05-22T03:01:58.297Z,62.78
2019-05-22T03:04:58.272Z,55.43
2019-05-22T03:07:33.807Z,58.90
2019-05-22T03:10:12.202Z,60.65
2019-05-22T03:12:49.670Z,60.85
2019-05-22T03:15:25.985Z,61.58
2019-05-22T03:18:05.028Z,59.55
2019-05-22T03:20:42.098Z,58.33
2019-05-22T03:23:37.854Z,60.88
2019-05-22T03:26:15.477Z,60.10
2019-05-22T03:28:51.381Z,62.43
2019-05-22T03:31:27.262Z,61.25
2019-05-22T03:34:02.718Z,64.30
2019-05-22T03:36:38.894Z,63.87
2019-05-22T03:39:16.402Z,65.72
2019-05-22T03:41:52.500Z,63.92
2019-05-22T03:44:28.565Z,66.70
2019-05-22T03:47:05.512Z,64.60
2019-05-22T03:49:43.153Z,65.32
2019-05-22T03:52:19.161Z,65.50
2019-05-22T03:54:55.878Z,66.22
2019-05-22T03:57:33.551Z,61.40
2019-05-22T04:00:12.019Z,63.42
2019-05-22T04:02:51.156Z,63.98
2019-05-22T04:05:27.796Z,62.58
2019-05-22T04:08:06.075Z,67.42
2019-05-22T04:10:59.022Z,63.85
2019-05-22T04:13:35.917Z,67.53
2019-05-22T04:16:13.838Z,70.70
2019-05-22T04:18:49.978Z,65.32
2019-05-22T04:21:25.810Z,63.98
2019-05-22T04:24:01.403Z,64.80
2019-05-22T04:26:37.599Z,60.88
2019-05-22T04:29:14.726Z,60.78
2019-05-22T04:32:03.003Z,62.60
2019-05-22T04:34:38.889Z,62.25
2019-05-22T04:37:15.797Z,52.43
2019-05-22T04:39:54.970Z,56.37
2019-05-22T04:42:30.810Z,57.85
2019-05-22T04:45:12.307Z,57.35
2019-05-22T04:47:58.625Z,49.25
2019-05-22T04:50:35.251Z,57.67
2019-05-22T04:53:10.604Z,56.48
2019-05-22T04:55:46.290Z,55.12
2019-05-22T04:58:30.387Z,58.80
2019-05-22T05:01:05.733Z,54.08
2019-05-22T05:03:41.095Z,57.98
2019-05-22T05:06:18.451Z,62.15
2019-05-22T05:08:54.662Z,62.17
2019-05-22T05:11:30.259Z,58.68
2019-05-22T05:14:06.922Z,55.55
2019-05-22T05:16:43.345Z,57.20
2019-05-22T05:19:19.092Z,55.40
2019-05-22T05:21:54.564Z,53.98
2019-05-22T05:24:29.932Z,54.45
2019-05-22T05:27:06.985Z,50.88
2019-05-22T05:29:42.312Z,50.58
2019-05-22T05:32:20.894Z,47.62
2019-05-22T05:35:07.244Z,45.08
2019-05-22T05:37:43.442Z,44.45
2019-05-22T05:40:40.306Z,47.70
2019-05-22T05:43:21.202Z,50.45
2019-05-22T05:45:56.734Z,52.55
2019-05-22T05:48:33.556Z,48.23
2019-05-22T05:51:36.345Z,48.78
2019-05-22T05:54:23.332Z,45.67
2019-05-22T05:57:13.420Z,46.73
2019-05-22T05:59:49.660Z,47.13
2019-05-22T06:02:27.529Z,49.88
2019-05-22T06:05:03.792Z,51.63
2019-05-22T06:07:39.381Z,49.08
2019-05-22T06:11:04.371Z,53.87
2019-05-22T06:13:39.981Z,51.00
2019-05-22T06:17:07.015Z,49.58
2019-05-22T06:19:45.362Z,52.05
2019-05-22T06:22:21.688Z,46.92
2019-05-22T06:25:01.871Z,45.80
2019-05-22T06:27:44.479Z,42.95
2019-05-22T06:30:46.353Z,45.03
2019-05-22T06:33:39.653Z,47.23
2019-05-22T06:36:17.629Z,43.95
2019-05-22T06:39:20.147Z,42.90
2019-05-22T06:41:57.147Z,46.83
2019-05-22T06:44:35.151Z,50.05
2019-05-22T06:47:19.630Z,50.78
2019-05-22T06:55:05.762Z,50.90
2019-05-22T06:57:41.306Z,52.73
2019-05-22T07:00:23.236Z,53.58
2019-05-22T07:03:04.136Z,47.55
2019-05-22T07:05:43.664Z,52.77
2019-05-22T07:08:22.667Z,48.28
2019-05-22T07:10:58.274Z,49.77
2019-05-22T07:13:34.216Z,48.83
2019-05-22T07:16:09.772Z,50.23
2019-05-22T07:18:45.883Z,48.63
2019-05-22T07:21:33.427Z,50.90
2019-05-22T07:23:58.813Z,47.98
2019-05-22T07:26:37.300Z,48.50
2019-05-22T07:29:13.319Z,51.85
2019-05-22T07:31:48.712Z,45.78
2019-05-22T07:34:25.180Z,51.95
2019-05-22T07:37:05.559Z,49.08
2019-05-22T07:39:40.974Z,49.53
2019-05-22T07:42:16.418Z,53.58
2019-05-22T07:44:53.118Z,49.05
2019-05-22T07:47:29.691Z,50.15
2019-05-22T07:50:07.034Z,48.17
2019-05-22T07:52:45.009Z,49.93
2019-05-22T07:55:21.960Z,48.15
2019-05-22T07:58:11.734Z,46.33
2019-05-22T08:01:00.677Z,50.50
2019-05-22T08:03:38.239Z,50.45
2019-05-22T08:06:20.781Z,43.85
2019-05-22T08:09:00.018Z,40.23
2019-05-22T08:11:37.017Z,39.45
2019-05-22T08:14:13.119Z,40.23
2019-05-22T08:16:49.153Z,38.13
2019-05-22T08:19:26.208Z,38.20
2019-05-22T08:22:07.240Z,39.30
2019-05-22T08:24:41.414Z,36.58
2019-05-22T08:27:20.214Z,36.42
2019-05-22T08:29:57.115Z,32.83
2019-05-22T08:32:33.665Z,35.03
2019-05-22T08:35:12.358Z,37.20
2019-05-22T08:37:53.229Z,34.33
2019-05-22T08:40:29.665Z,34.90
2019-05-22T08:43:06.303Z,36.77
2019-05-22T08:45:42.921Z,34.78
2019-05-22T08:48:23.877Z,38.80
2019-05-22T08:51:01.360Z,35.63
2019-05-22T08:53:46.544Z,36.73
2019-05-22T08:56:15.344Z,35.95
2019-05-22T08:58:52.236Z,36.03
2019-05-22T09:01:28.676Z,32.40
2019-05-22T09:04:04.342Z,33.67
2019-05-22T09:06:40.111Z,31.55
2019-05-22T09:09:18.483Z,30.40
2019-05-22T09:11:54.139Z,28.87
2019-05-22T09:14:29.611Z,30.43
2019-05-22T09:17:06.821Z,31.97
2019-05-22T09:19:42.618Z,30.08
2019-05-22T09:22:18.164Z,30.45
2019-05-22T09:24:53.600Z,34.88
2019-05-22T09:27:33.450Z,35.52
2019-05-22T09:30:10.890Z,33.38
2019-05-22T09:32:47.790Z,32.38
2019-05-22T09:35:23.615Z,30.30
2019-05-22T09:37:58.968Z,31.20
2019-05-22T09:40:34.529Z,29.00
2019-05-22T09:43:09.947Z,25.23
2019-05-22T09:45:45.322Z,28.17
2019-05-22T09:48:21.084Z,26.27
2019-05-22T09:50:56.865Z,26.37
2019-05-22T09:53:40.175Z,27.55
2019-05-22T09:56:16.040Z,24.23
2019-05-22T09:58:52.167Z,25.50
2019-05-22T10:01:27.818Z,25.50
2019-05-22T10:04:05.521Z,26.37
2019-05-22T10:06:41.370Z,26.40
2019-05-22T10:09:16.924Z,25.88
2019-05-22T10:11:52.652Z,24.43
2019-05-22T10:14:28.477Z,24.30
2019-05-22T10:17:03.922Z,21.93
2019-05-22T10:19:39.331Z,26.17
2019-05-22T10:22:30.884Z,29.40
2019-05-22T10:25:15.607Z,27.73
2019-05-22T10:27:43.836Z,26.25
2019-05-22T10:30:23.351Z,23.73
2019-05-22T10:32:58.750Z,23.98
2019-05-22T10:35:35.014Z,20.88
2019-05-22T10:38:11.102Z,21.52
2019-05-22T10:40:46.406Z,21.27
2019-05-22T10:43:21.945Z,20.97
2019-05-22T10:45:58.115Z,23.20
2019-05-22T10:48:34.534Z,22.25
2019-05-22T10:51:10.279Z,23.92
2019-05-22T10:53:45.708Z,21.50
2019-05-22T10:56:21.362Z,19.42
2019-05-22T10:58:56.763Z,19.00
2019-05-22T11:01:37.267Z,23.35
2019-05-22T11:04:11.827Z,23.15
2019-05-22T11:06:48.315Z,20.80
2019-05-22T11:09:23.923Z,18.98
2019-05-22T11:12:01.197Z,18.98
2019-05-22T11:14:40.624Z,19.52
2019-05-22T11:17:16.067Z,18.23
2019-05-22T11:19:51.464Z,16.37
2019-05-22T11:22:27.173Z,18.45
2019-05-22T11:25:02.551Z,19.70
2019-05-22T11:27:38.078Z,19.80
2019-05-22T11:30:14.360Z,17.05
2019-05-22T11:32:49.894Z,18.45
2019-05-22T11:35:25.485Z,19.27
2019-05-22T11:38:00.906Z,15.45
2019-05-22T11:40:40.961Z,14.05
2019-05-22T11:43:16.496Z,15.05
2019-05-22T11:45:52.483Z,17.12
2019-05-22T11:48:27.848Z,13.72
2019-05-22T11:51:03.632Z,14.30
2019-05-22T11:53:38.936Z,15.55
2019-05-22T11:56:14.229Z,16.55
2019-05-22T11:58:52.823Z,13.15
2019-05-22T12:01:28.423Z,16.40
2019-05-22T12:04:05.139Z,14.33
2019-05-22T12:06:40.809Z,13.85
2019-05-22T12:09:16.570Z,13.00
2019-05-22T12:11:52.643Z,12.98
2019-05-22T12:14:28.419Z,12.15
2019-05-22T12:17:04.825Z,12.28
2019-05-22T12:19:40.954Z,17.07
2019-05-22T12:22:19.814Z,11.70
2019-05-22T12:24:54.124Z,13.30
2019-05-22T12:27:31.107Z,13.43
2019-05-22T12:30:07.578Z,13.62
2019-05-22T12:32:46.714Z,13.83
2019-05-22T12:35:24.106Z,13.22
2019-05-22T12:38:17.199Z,12.18
2019-05-22T12:40:53.483Z,10.95
2019-05-22T12:43:36.009Z,12.55
2019-05-22T12:46:13.279Z,12.30
2019-05-22T12:48:48.629Z,13.28
2019-05-22T12:51:24.109Z,11.90
2019-05-22T12:53:59.585Z,11.10
2019-05-22T12:56:35.260Z,13.43
2019-05-22T12:59:11.336Z,13.00
2019-05-22T13:01:47.310Z,12.78
2019-05-22T13:04:24.551Z,11.85
2019-05-22T13:07:00.610Z,11.63
2019-05-22T13:09:36.351Z,12.15
2019-05-22T13:12:12.739Z,11.70
2019-05-22T13:14:48.811Z,9.65
2019-05-22T13:17:25.921Z,10.78
2019-05-22T13:20:02.815Z,10.63
2019-05-22T13:22:41.125Z,11.33
2019-05-22T13:25:17.522Z,10.65
2019-05-22T13:27:53.437Z,12.53
2019-05-22T13:30:29.063Z,11.90
2019-05-22T13:33:11.220Z,11.30
2019-05-22T13:35:50.323Z,12.03
2019-05-22T13:38:27.550Z,12.37
2019-05-22T13:41:03.964Z,11.83
2019-05-22T13:43:39.541Z,10.60
2019-05-22T13:46:50.019Z,9.93
2019-05-22T13:49:26.467Z,13.25
2019-05-22T13:52:01.863Z,13.90
2019-05-22T13:54:37.317Z,15.15
2019-05-22T13:57:13.680Z,13.70
2019-05-22T13:59:49.143Z,13.28
2019-05-22T14:02:27.313Z,12.33
2019-05-22T14:05:03.060Z,14.25
2019-05-22T14:07:38.523Z,12.37
2019-05-22T14:10:14.033Z,14.83
2019-05-22T14:12:49.603Z,14.30
2019-05-22T14:15:25.588Z,12.90
2019-05-22T14:18:02.013Z,11.10
2019-05-22T14:20:37.662Z,10.68
2019-05-22T14:23:13.334Z,13.53
2019-05-22T14:25:49.654Z,13.55
2019-05-22T14:28:27.458Z,12.90
2019-05-22T14:31:02.898Z,12.05
2019-05-22T14:33:40.507Z,12.20
2019-05-22T14:36:16.496Z,11.08
2019-05-22T14:38:53.221Z,11.28
2019-05-22T14:41:33.033Z,12.33
2019-05-22T14:44:08.592Z,12.80
2019-05-22T14:46:43.950Z,9.88
2019-05-22T14:49:20.953Z,13.60
2019-05-22T14:51:56.872Z,13.65
2019-05-22T14:54:32.866Z,12.40
2019-05-22T14:57:08.928Z,12.15
2019-05-22T14:59:44.294Z,14.58
2019-05-22T15:02:20.808Z,13.50
2019-05-22T15:04:56.372Z,12.68
2019-05-22T15:07:31.778Z,11.43
2019-05-22T15:10:08.105Z,14.45
2019-05-22T15:12:43.476Z,16.67
2019-05-22T15:15:19.333Z,15.05
2019-05-22T15:17:54.760Z,13.22
2019-05-22T15:20:42.155Z,14.47
2019-05-22T15:23:17.639Z,13.72
2019-05-22T15:25:53.341Z,14.93
2019-05-22T15:28:28.881Z,16.97
2019-05-22T15:31:04.395Z,17.15
2019-05-22T15:33:40.466Z,14.25
2019-05-22T15:36:19.214Z,14.03
2019-05-22T15:38:55.132Z,14.45
2019-05-22T15:41:31.435Z,13.85
2019-05-22T15:44:08.064Z,17.15
2019-05-22T15:46:45.982Z,14.25
2019-05-22T15:49:25.839Z,15.68
2019-05-22T15:52:02.067Z,15.28
2019-05-22T15:54:38.655Z,15.03
2019-05-22T15:57:15.767Z,17.90
2019-05-22T15:59:52.070Z,16.85
2019-05-22T16:02:28.374Z,19.60
2019-05-22T16:05:05.744Z,17.77
2019-05-22T16:07:41.732Z,18.37
2019-05-22T16:10:18.809Z,15.60
2019-05-22T16:12:56.296Z,18.82
2019-05-22T16:15:33.402Z,18.45
2019-05-22T16:18:12.189Z,18.05
2019-05-22T16:20:48.674Z,18.00
2019-05-22T16:23:25.338Z,17.73
2019-05-22T16:26:01.902Z,17.67
2019-05-22T16:28:40.889Z,19.67
2019-05-22T16:31:18.316Z,18.30
2019-05-22T16:33:54.341Z,18.35
2019-05-22T16:36:30.997Z,17.23
2019-05-22T16:39:08.254Z,19.32
2019-05-22T16:41:47.410Z,17.02
2019-05-22T16:44:23.308Z,15.30
2019-05-22T16:46:59.140Z,15.88
2019-05-22T16:49:38.016Z,10.15
2019-05-22T16:52:15.555Z,8.18
2019-05-22T16:54:51.261Z,6.72
2019-05-22T16:57:27.563Z,9.70
2019-05-22T17:00:04.982Z,5.75
2019-05-22T17:02:42.077Z,6.70
2019-05-22T17:05:19.264Z,7.03
2019-05-22T17:07:54.689Z,5.08
2019-05-22T17:10:30.398Z,9.35
2019-05-22T17:13:12.143Z,5.97
2019-05-22T17:15:46.411Z,6.58
2019-05-22T17:18:22.093Z,5.53
2019-05-22T17:20:58.979Z,3.75
2019-05-22T17:23:34.652Z,4.08
2019-05-22T17:26:11.426Z,3.83
2019-05-22T17:28:48.026Z,2.77
2019-05-22T17:31:24.899Z,5.47
2019-05-22T17:34:06.207Z,9.15
2019-05-22T17:36:42.326Z,7.28
2019-05-22T17:39:18.068Z,3.77
2019-05-22T17:41:56.634Z,4.70
2019-05-22T17:44:33.404Z,4.28
2019-05-22T17:47:10.463Z,5.62
2019-05-22T17:49:45.953Z,4.00
2019-05-22T17:52:23.337Z,5.25
2019-05-22T17:54:59.590Z,7.25
2019-05-22T17:57:34.996Z,6.72
2019-05-22T18:00:17.505Z,3.10
2019-05-22T18:02:52.911Z,3.52
2019-05-22T18:05:33.284Z,3.52
2019-05-22T18:08:09.901Z,3.08
2019-05-22T18:10:49.627Z,4.03
2019-05-22T18:13:25.576Z,2.47
2019-05-22T18:16:04.258Z,3.70
2019-05-22T18:18:38.098Z,3.20
2019-05-22T18:21:13.738Z,5.35
2019-05-22T18:23:49.496Z,4.22
2019-05-22T18:26:25.827Z,6.60
2019-05-22T18:29:09.849Z,4.78
2019-05-22T18:31:42.307Z,3.58
2019-05-22T18:34:17.889Z,5.08
2019-05-22T18:36:53.208Z,5.65
2019-05-22T18:39:29.357Z,3.33
2019-05-22T18:42:04.888Z,5.05
2019-05-22T18:44:40.352Z,3.52
2019-05-22T18:47:15.904Z,4.12
2019-05-22T18:49:51.401Z,5.08
2019-05-22T18:52:41.044Z,4.55
2019-05-22T18:55:10.839Z,2.60
2019-05-22T18:57:46.515Z,3.80
2019-05-22T19:00:24.669Z,4.30
2019-05-22T19:03:00.094Z,3.83
2019-05-22T19:05:37.213Z,2.50
2019-05-22T19:08:12.658Z,5.60
2019-05-22T19:10:48.401Z,2.62
2019-05-22T19:13:23.781Z,3.05
2019-05-22T19:15:59.828Z,5.05
2019-05-22T19:18:36.310Z,3.35
2019-05-22T19:21:12.075Z,3.87
2019-05-22T19:23:47.640Z,6.50
2019-05-22T19:26:23.209Z,3.58
2019-05-22T19:28:58.967Z,3.92
2019-05-22T19:31:34.533Z,5.35
2019-05-22T19:34:13.876Z,4.40
2019-05-22T19:36:49.264Z,4.80
2019-05-22T19:39:24.984Z,6.33
2019-05-22T19:42:04.524Z,5.12
2019-05-22T19:44:37.522Z,5.92
2019-05-22T19:47:14.401Z,6.42
2019-05-22T19:49:50.216Z,6.00
2019-05-22T19:52:40.474Z,6.83
2019-05-22T19:55:07.112Z,5.03
2019-05-22T19:57:43.492Z,5.80
2019-05-22T20:00:19.279Z,5.47
2019-05-22T20:02:55.711Z,5.33
2019-05-22T20:05:33.369Z,5.15
2019-05-22T20:08:10.440Z,5.15
2019-05-22T20:10:46.007Z,7.28
2019-05-22T20:13:23.732Z,4.62
2019-05-22T20:15:59.340Z,7.20
2019-05-22T20:18:34.968Z,8.18
2019-05-22T20:21:10.582Z,7.50
2019-05-22T20:23:46.624Z,8.23
2019-05-22T20:26:22.354Z,7.83
2019-05-22T20:28:58.040Z,7.08
2019-05-22T20:31:33.372Z,8.73
2019-05-22T20:34:09.003Z,8.03
2019-05-22T20:36:45.350Z,9.35
2019-05-22T20:39:22.268Z,9.95
2019-05-22T20:41:57.900Z,7.80
2019-05-22T20:44:36.322Z,10.32
2019-05-22T20:47:15.946Z,8.95
2019-05-22T20:49:57.543Z,12.90
2019-05-22T20:55:19.398Z,7.65
2019-05-22T20:57:56.288Z,7.80
2019-05-22T21:00:35.105Z,6.97
2019-05-22T21:03:22.339Z,7.80
2019-05-22T21:06:00.695Z,7.65
2019-05-22T21:08:41.963Z,9.28
2019-05-22T21:11:24.903Z,8.00
2019-05-22T21:14:05.431Z,8.40
2019-05-22T21:16:43.907Z,6.90
2019-05-22T21:19:19.424Z,10.68
2019-05-22T21:21:59.634Z,6.75
2019-05-22T21:24:40.932Z,10.13
2019-05-22T21:27:23.008Z,9.55
2019-05-22T21:30:00.974Z,7.12
2019-05-22T21:32:39.047Z,7.28
2019-05-22T21:35:21.765Z,9.68
2019-05-22T21:37:58.576Z,7.70
2019-05-22T21:40:38.029Z,8.65
2019-05-22T21:43:17.039Z,7.75
2019-05-22T21:45:52.413Z,7.80
2019-05-22T21:48:33.895Z,9.65
2019-05-22T21:51:09.731Z,6.75
2019-05-22T21:53:45.942Z,8.40
2019-05-22T21:56:21.302Z,7.42
2019-05-22T21:58:59.621Z,8.68
2019-05-22T22:01:40.280Z,6.22
2019-05-22T22:04:29.117Z,7.47
2019-05-22T22:07:05.187Z,7.72
2019-05-22T22:09:42.664Z,8.58
2019-05-22T22:12:22.149Z,8.45
2019-05-22T22:14:57.913Z,7.22
2019-05-22T22:17:34.871Z,7.65
2019-05-22T22:20:11.644Z,10.20
2019-05-22T22:22:49.032Z,11.33
2019-05-22T22:25:25.365Z,8.65
2019-05-22T22:28:01.507Z,9.23
2019-05-22T22:30:44.341Z,9.05
2019-05-22T22:33:23.515Z,10.13
2019-05-22T22:35:59.562Z,9.68
2019-05-22T22:38:36.371Z,9.15
2019-05-22T22:41:14.054Z,8.95
2019-05-22T22:43:50.063Z,8.53
2019-05-22T22:46:40.025Z,8.03
2019-05-22T22:49:18.621Z,9.10
2019-05-22T22:51:55.826Z,8.58
2019-05-22T22:54:33.307Z,10.08
2019-05-22T22:57:09.590Z,10.23
2019-05-22T22:59:44.793Z,8.60
2019-05-22T23:02:23.740Z,8.63
2019-05-22T23:04:59.938Z,9.70
2019-05-22T23:07:37.372Z,10.85
2019-05-22T23:10:14.579Z,14.85
2019-05-22T23:12:53.041Z,11.03
2019-05-22T23:15:28.733Z,10.60
2019-05-22T23:18:04.314Z,10.05
2019-05-22T23:20:38.965Z,10.13
2019-05-22T23:23:13.806Z,14.38
2019-05-22T23:25:49.594Z,13.55
2019-05-22T23:28:34.687Z,11.97
2019-05-22T23:31:02.487Z,10.60
2019-05-22T23:33:39.070Z,11.25
2019-05-22T23:36:16.481Z,10.80
2019-05-22T23:38:52.984Z,12.18
2019-05-22T23:41:30.633Z,12.00
2019-05-22T23:44:07.532Z,11.00
2019-05-22T23:46:43.587Z,13.10
2019-05-22T23:49:19.305Z,11.00
2019-05-22T23:51:54.711Z,12.13
2019-05-22T23:54:30.831Z,14.87
2019-05-22T23:57:08.062Z,13.38
2019-05-22T23:59:45.608Z,15.50
